Acampo, California
Current Conditions -  °F | °C
As of 3:55 PM on Friday 24 Oct 2014 (Local Time) from KSCK Reporting Station
Clear Clear  
Wind Chill: 26°   Ceiling: Unl
Heat Index: 26°   Visibility: 10mi
Dew Point: 12°   Wind: 6mph
Humidity: 42%   Direction: 290°WNW
Pressure: 29.86"   Gusts: NA
Location:  38.17°N, 121.28°W
Report Text: KSCK 242255Z 29005KT 10SM CLR 26/12 A2986 RMK AO2 SLP110 T02610122
Loading
Personal Weather Stations






























Interactive Weather Map
Tropical Storm Tracking
New forecast layout! Learn more

10-Day Weather Forecast

Advertisements
Track Severe Weather on mobile